createdAt,value
2022-07-31T00:00:15.363Z,100340.09
2022-07-31T00:02:42.341Z,100325.25
2022-07-31T00:05:09.717Z,100251.09
2022-07-31T00:07:36.862Z,100330.47
2022-07-31T00:10:05.595Z,100339.22
2022-07-31T00:12:34.945Z,100276.41
2022-07-31T00:15:06.545Z,100235.44
2022-07-31T00:17:34.014Z,100354.09
2022-07-31T00:20:01.064Z,100276.41
2022-07-31T00:22:28.020Z,100339.28
2022-07-31T00:24:55.055Z,100255.50
2022-07-31T00:27:22.208Z,100282.53
2022-07-31T00:29:49.864Z,100281.72
2022-07-31T00:32:16.861Z,100255.56
2022-07-31T00:34:43.902Z,100340.13
2022-07-31T00:37:11.038Z,100295.66
2022-07-31T00:39:38.519Z,100344.56
2022-07-31T00:42:06.005Z,100312.25
2022-07-31T00:44:33.064Z,100332.31
2022-07-31T00:47:00.701Z,100283.47
2022-07-31T00:49:37.234Z,100333.22
2022-07-31T00:52:06.003Z,100263.41
2022-07-31T00:54:35.810Z,100214.53
2022-07-31T00:57:03.524Z,100344.59
2022-07-31T00:59:31.344Z,100309.66
2022-07-31T01:01:59.245Z,100311.41
2022-07-31T01:04:27.362Z,100261.66
2022-07-31T01:06:55.572Z,100342.00
2022-07-31T01:09:22.702Z,100342.00
2022-07-31T01:12:13.190Z,100339.38
2022-07-31T01:14:45.838Z,100340.25
2022-07-31T01:17:14.206Z,100279.16
2022-07-31T01:19:45.720Z,100347.25
2022-07-31T01:22:46.383Z,100271.28
2022-07-31T01:25:58.637Z,100348.13
2022-07-31T01:29:03.704Z,100342.03
2022-07-31T01:31:39.548Z,100161.38
2022-07-31T01:34:15.077Z,100363.88
2022-07-31T01:36:49.817Z,100315.84
2022-07-31T01:39:18.711Z,100328.06
2022-07-31T01:41:48.631Z,100305.34
2022-07-31T01:44:18.906Z,100286.16
2022-07-31T01:46:48.679Z,100308.81
2022-07-31T01:49:19.300Z,100329.81
2022-07-31T01:51:48.732Z,100337.69
2022-07-31T01:54:19.047Z,100314.97
2022-07-31T01:56:48.851Z,100329.81
2022-07-31T01:59:20.426Z,100268.69
2022-07-31T02:02:10.165Z,100275.69
2022-07-31T02:04:38.773Z,100328.03
2022-07-31T02:07:08.402Z,100343.81
2022-07-31T02:09:37.809Z,100335.06
2022-07-31T02:12:32.987Z,100342.91
2022-07-31T02:15:22.018Z,100342.94
2022-07-31T02:17:52.693Z,100342.06
2022-07-31T02:20:25.809Z,100329.81
2022-07-31T02:22:55.852Z,100327.16
2022-07-31T02:25:23.318Z,100339.44
2022-07-31T02:27:53.720Z,100344.66
2022-07-31T02:30:38.372Z,100339.44
2022-07-31T02:33:10.333Z,100272.19
2022-07-31T02:35:44.087Z,100347.28
2022-07-31T02:38:22.269Z,100327.22
2022-07-31T02:40:54.456Z,100270.44
2022-07-31T02:43:21.768Z,100328.97
2022-07-31T02:45:48.988Z,100335.94
2022-07-31T02:48:16.445Z,100161.34
2022-07-31T02:50:48.616Z,100335.03
2022-07-31T02:53:16.406Z,100324.56
2022-07-31T02:55:46.889Z,100180.56
2022-07-31T02:58:14.544Z,100289.63
2022-07-31T03:00:46.089Z,100333.31
2022-07-31T03:03:14.084Z,100340.28
2022-07-31T03:05:42.065Z,100255.56
2022-07-31T03:08:09.400Z,100311.44
2022-07-31T03:10:39.937Z,100307.06
2022-07-31T03:13:07.372Z,100344.59
2022-07-31T03:15:36.416Z,100251.19
2022-07-31T03:18:11.329Z,100341.09
2022-07-31T03:20:42.844Z,100334.94
2022-07-31T03:23:12.830Z,100341.06
2022-07-31T03:25:50.851Z,100322.72
2022-07-31T03:28:21.872Z,100325.31
2022-07-31T03:30:51.925Z,100270.34
2022-07-31T03:33:24.780Z,100306.09
2022-07-31T03:35:53.960Z,100353.22
2022-07-31T03:38:38.963Z,100344.41
2022-07-31T03:41:08.938Z,100340.91
2022-07-31T03:43:44.280Z,100343.47
2022-07-31T03:46:22.123Z,100250.97
2022-07-31T03:48:52.841Z,100321.59
2022-07-31T03:51:21.501Z,100344.31
2022-07-31T03:53:49.940Z,100320.75
2022-07-31T03:56:36.633Z,100318.06
2022-07-31T03:59:04.268Z,100358.13
2022-07-31T04:01:56.948Z,100270.84
2022-07-31T04:04:29.223Z,100324.00
2022-07-31T04:07:07.172Z,100351.00
2022-07-31T04:09:34.356Z,100308.22
2022-07-31T04:12:03.089Z,100347.41
2022-07-31T04:14:30.832Z,100329.06
2022-07-31T04:16:57.832Z,100337.63
2022-07-31T04:19:26.644Z,100356.81
2022-07-31T04:21:53.866Z,100356.78
2022-07-31T04:24:21.850Z,100323.44
2022-07-31T04:27:23.880Z,100359.88
2022-07-31T04:29:52.048Z,100324.91
2022-07-31T04:32:21.797Z,100336.94
2022-07-31T04:34:54.271Z,100352.56
2022-07-31T04:37:21.408Z,100353.34
2022-07-31T04:39:48.430Z,100198.16
2022-07-31T04:42:15.894Z,100300.00
2022-07-31T04:44:42.862Z,100330.38
2022-07-31T04:47:09.856Z,100258.88
2022-07-31T04:49:42.518Z,100340.66
2022-07-31T04:52:11.886Z,100321.34
2022-07-31T04:54:39.938Z,100241.13
2022-07-31T04:57:10.292Z,100323.69
2022-07-31T04:59:59.962Z,100335.81
2022-07-31T05:02:24.533Z,100303.53
2022-07-31T05:04:57.120Z,100316.38
2022-07-31T05:07:30.827Z,100195.28
2022-07-31T05:09:58.919Z,100330.91
2022-07-31T05:12:26.901Z,100340.44
2022-07-31T05:14:54.590Z,100283.72
2022-07-31T05:17:21.690Z,100331.47
2022-07-31T05:20:01.111Z,100340.91
2022-07-31T05:22:59.801Z,100326.03
2022-07-31T05:25:40.050Z,100319.75
2022-07-31T05:28:08.872Z,100304.81
2022-07-31T05:30:37.246Z,100342.09
2022-07-31T05:33:05.504Z,100317.25
2022-07-31T05:35:32.516Z,100231.94
2022-07-31T05:37:59.651Z,100319.69
2022-07-31T05:40:44.024Z,100203.84
2022-07-31T05:43:49.451Z,100275.69
2022-07-31T05:46:21.462Z,100295.53
2022-07-31T05:48:48.484Z,100215.97
2022-07-31T05:51:18.838Z,100309.94
2022-07-31T05:53:47.755Z,100266.22
2022-07-31T05:56:33.162Z,100229.59
2022-07-31T05:59:01.293Z,100286.00
2022-07-31T06:01:28.610Z,100276.38
2022-07-31T06:03:56.307Z,100278.88
2022-07-31T06:06:31.687Z,100231.09
2022-07-31T06:09:04.502Z,100286.53
2022-07-31T06:11:36.016Z,100298.44
2022-07-31T06:14:03.568Z,100252.06
2022-07-31T06:16:50.311Z,100293.53
2022-07-31T06:19:18.790Z,100287.88
2022-07-31T06:21:52.154Z,100258.09
2022-07-31T06:24:22.120Z,100292.72
2022-07-31T06:26:49.495Z,100285.75
2022-07-31T06:29:17.162Z,100287.53
2022-07-31T06:31:44.082Z,100232.16
2022-07-31T06:34:11.031Z,100306.34
2022-07-31T06:36:41.626Z,100291.91
2022-07-31T06:39:12.658Z,100309.00
2022-07-31T06:41:59.150Z,100299.84
2022-07-31T06:44:31.097Z,100300.84
2022-07-31T06:47:26.125Z,100298.50
2022-07-31T06:49:55.931Z,100292.25
2022-07-31T06:52:26.838Z,100298.41
2022-07-31T06:54:54.819Z,100305.75
2022-07-31T06:57:21.897Z,100224.25
2022-07-31T06:59:50.278Z,100281.69
2022-07-31T07:02:17.299Z,100288.44
2022-07-31T07:05:05.401Z,100305.81
2022-07-31T07:07:32.220Z,100283.94
2022-07-31T07:10:01.770Z,100214.63
2022-07-31T07:12:58.088Z,100279.81
2022-07-31T07:15:26.804Z,100305.31
2022-07-31T07:17:54.376Z,100298.66
2022-07-31T07:20:31.799Z,100280.28
2022-07-31T07:22:58.737Z,100288.56
2022-07-31T07:25:37.387Z,100298.00
2022-07-31T07:28:05.671Z,100204.97
2022-07-31T07:30:32.899Z,100282.00
2022-07-31T07:33:01.550Z,100299.13
2022-07-31T07:35:33.800Z,100200.81
2022-07-31T07:38:05.502Z,100284.53
2022-07-31T07:40:33.503Z,100271.69
2022-07-31T07:43:03.228Z,100240.59
2022-07-31T07:45:31.386Z,100271.13
2022-07-31T07:48:06.360Z,100250.75
2022-07-31T07:51:00.563Z,100205.41
2022-07-31T07:53:36.980Z,100217.84
2022-07-31T07:56:23.178Z,100266.63
2022-07-31T07:59:15.087Z,100276.28
2022-07-31T08:02:00.789Z,100279.81
2022-07-31T08:04:30.570Z,100288.09
2022-07-31T08:06:58.165Z,100219.94
2022-07-31T08:09:29.479Z,100197.00
2022-07-31T08:12:14.930Z,100272.84
2022-07-31T08:15:01.544Z,100191.81
2022-07-31T08:17:47.271Z,100251.31
2022-07-31T08:20:14.846Z,100271.97
2022-07-31T08:22:41.856Z,100274.31
2022-07-31T08:25:14.377Z,100127.56
2022-07-31T08:27:43.669Z,100262.63
2022-07-31T08:30:16.519Z,100187.84
2022-07-31T08:32:43.673Z,100196.25
2022-07-31T08:35:20.947Z,100229.72
2022-07-31T08:37:51.761Z,100251.75
2022-07-31T08:40:31.363Z,100246.19
2022-07-31T08:43:01.214Z,100226.97
2022-07-31T08:45:29.245Z,100247.78
2022-07-31T08:48:08.841Z,100258.50
2022-07-31T08:50:46.798Z,100264.38
2022-07-31T08:53:37.046Z,100255.81
2022-07-31T08:56:11.477Z,100158.66
2022-07-31T08:58:39.812Z,100247.16
2022-07-31T09:01:11.402Z,100235.59
2022-07-31T09:03:39.245Z,100229.47
2022-07-31T09:06:09.801Z,100242.66
2022-07-31T09:08:37.827Z,100249.13
2022-07-31T09:11:09.468Z,100246.13
2022-07-31T09:13:40.305Z,100255.09
2022-07-31T09:16:30.738Z,100228.69
2022-07-31T09:19:51.213Z,100226.09
2022-07-31T09:21:52.670Z,100173.91
2022-07-31T09:24:30.618Z,100246.28
2022-07-31T09:27:10.233Z,100217.97
2022-07-31T09:29:39.982Z,100198.91
2022-07-31T09:32:17.328Z,100248.78
2022-07-31T09:35:13.057Z,100240.44
2022-07-31T09:37:41.614Z,100218.50
2022-07-31T09:40:39.942Z,100185.69
2022-07-31T09:43:51.766Z,100143.19
2022-07-31T09:46:19.864Z,100190.69
2022-07-31T09:48:59.860Z,100250.84
2022-07-31T09:51:41.266Z,100248.38
2022-07-31T09:54:24.087Z,100252.66
2022-07-31T09:57:14.021Z,100246.50
2022-07-31T09:59:44.401Z,100247.44
2022-07-31T10:02:14.767Z,100261.69
2022-07-31T10:04:44.832Z,100081.38
2022-07-31T10:07:24.411Z,100251.53
2022-07-31T10:10:07.114Z,100216.72
2022-07-31T10:13:02.285Z,100255.91
2022-07-31T10:15:33.165Z,100248.31
2022-07-31T10:18:35.632Z,100178.88
2022-07-31T10:21:41.630Z,100222.44
2022-07-31T10:24:19.457Z,100248.84
2022-07-31T10:27:07.992Z,100238.59
2022-07-31T10:29:39.517Z,100115.03
2022-07-31T10:32:08.758Z,100243.44
2022-07-31T10:34:41.348Z,100233.41
2022-07-31T10:37:36.816Z,100245.34
2022-07-31T10:40:28.799Z,100229.06
2022-07-31T10:43:15.371Z,100231.13
2022-07-31T10:45:49.480Z,100160.88
2022-07-31T10:48:35.070Z,100219.41
2022-07-31T10:51:31.813Z,100215.53
2022-07-31T10:54:06.252Z,100206.88
2022-07-31T10:56:56.571Z,100208.38
2022-07-31T10:59:38.979Z,100236.69
2022-07-31T11:02:29.682Z,100184.50
2022-07-31T11:05:23.470Z,100184.63
2022-07-31T11:08:10.875Z,100157.59
2022-07-31T11:10:55.676Z,100220.47
2022-07-31T11:13:52.630Z,100203.38
2022-07-31T11:16:55.951Z,100181.31
2022-07-31T11:19:42.927Z,100209.59
2022-07-31T11:22:30.438Z,100226.41
2022-07-31T11:24:58.784Z,100184.06
2022-07-31T11:27:33.008Z,100230.84
2022-07-31T11:30:13.488Z,100213.41
2022-07-31T11:32:47.500Z,100213.69
2022-07-31T11:35:24.836Z,100158.41
2022-07-31T11:37:58.066Z,100206.38
2022-07-31T11:40:27.581Z,100151.97
2022-07-31T11:43:23.494Z,100201.88
2022-07-31T11:45:50.135Z,100198.44
2022-07-31T11:48:19.174Z,100196.72
2022-07-31T11:50:48.223Z,100133.25
2022-07-31T11:53:15.703Z,100205.31
2022-07-31T11:55:55.032Z,100167.16
2022-07-31T11:58:24.411Z,100194.59
2022-07-31T12:00:52.632Z,100204.59
2022-07-31T12:03:23.158Z,100208.31
2022-07-31T12:05:52.579Z,100140.94
2022-07-31T12:08:20.383Z,100147.94
2022-07-31T12:10:47.924Z,100185.16
2022-07-31T12:13:17.568Z,100206.91
2022-07-31T12:16:01.041Z,100205.81
2022-07-31T12:18:29.707Z,100206.03
2022-07-31T12:20:59.452Z,100186.22
2022-07-31T12:23:38.638Z,100180.78
2022-07-31T12:26:12.242Z,100065.50
2022-07-31T12:28:40.387Z,100130.34
2022-07-31T12:31:10.439Z,100197.56
2022-07-31T12:33:42.330Z,100114.81
2022-07-31T12:36:14.430Z,100139.88
2022-07-31T12:38:47.851Z,100198.56
2022-07-31T12:41:16.290Z,100192.91
2022-07-31T12:43:50.915Z,100141.59
2022-07-31T12:46:35.835Z,100185.91
2022-07-31T12:49:05.030Z,100127.06
2022-07-31T12:51:45.087Z,100155.53
2022-07-31T12:54:16.496Z,100166.88
2022-07-31T12:56:45.005Z,100191.06
2022-07-31T12:59:12.706Z,100187.50
2022-07-31T13:01:39.816Z,100101.53
2022-07-31T13:04:07.753Z,100192.22
2022-07-31T13:06:37.605Z,100177.38
2022-07-31T13:09:05.372Z,100179.09
2022-07-31T13:11:46.871Z,100080.50
2022-07-31T13:14:19.372Z,100171.34
2022-07-31T13:16:47.970Z,100168.69
2022-07-31T13:19:15.696Z,100158.16
2022-07-31T13:21:49.290Z,100105.16
2022-07-31T13:24:18.797Z,100099.84
2022-07-31T13:26:46.570Z,100154.25
2022-07-31T13:29:13.624Z,100169.97
2022-07-31T13:31:40.624Z,100160.75
2022-07-31T13:34:08.084Z,100107.16
2022-07-31T13:36:38.963Z,100145.28
2022-07-31T13:39:11.512Z,100135.06
2022-07-31T13:41:39.752Z,100158.44
2022-07-31T13:44:07.845Z,100088.50
2022-07-31T13:46:35.292Z,100141.94
2022-07-31T13:49:04.049Z,100162.03
2022-07-31T13:51:31.119Z,100132.81
2022-07-31T13:53:58.149Z,100125.59
2022-07-31T13:56:40.393Z,100096.00
2022-07-31T13:59:14.105Z,100139.84
2022-07-31T14:02:04.361Z,100156.25
2022-07-31T14:04:31.321Z,100138.69
2022-07-31T14:07:00.986Z,100123.44
2022-07-31T14:09:28.350Z,100079.22
2022-07-31T14:11:56.147Z,100147.66
2022-07-31T14:14:23.946Z,100077.34
2022-07-31T14:16:51.135Z,100130.03
2022-07-31T14:19:18.316Z,100092.94
2022-07-31T14:21:56.367Z,100132.97
2022-07-31T14:24:25.511Z,100091.63
2022-07-31T14:26:53.092Z,100120.00
2022-07-31T14:29:20.124Z,100115.78
2022-07-31T14:31:47.078Z,100121.97
2022-07-31T14:34:14.074Z,100081.16
2022-07-31T14:36:41.216Z,100044.91
2022-07-31T14:39:08.357Z,100120.47
2022-07-31T14:41:35.320Z,100105.75
2022-07-31T14:44:02.391Z,100121.69
2022-07-31T14:46:29.506Z,100124.16
2022-07-31T14:48:56.677Z,100040.28
2022-07-31T14:51:23.848Z,100134.78
2022-07-31T14:53:52.481Z,100106.84
2022-07-31T14:56:39.375Z,100053.16
2022-07-31T14:59:06.590Z,100118.50
2022-07-31T15:01:33.792Z,100086.22
2022-07-31T15:04:00.838Z,100097.63
2022-07-31T15:06:55.542Z,100113.38
2022-07-31T15:09:16.305Z,100125.63
2022-07-31T15:11:59.439Z,100118.91
2022-07-31T15:14:27.931Z,100105.28
2022-07-31T15:16:54.961Z,100130.47
2022-07-31T15:19:22.002Z,99942.69
2022-07-31T15:22:11.167Z,100044.94
2022-07-31T15:24:36.104Z,100059.75
2022-07-31T15:27:03.642Z,100104.84
2022-07-31T15:30:04.615Z,100124.78
2022-07-31T15:32:17.832Z,100117.13
2022-07-31T15:34:44.836Z,100018.41
2022-07-31T15:37:20.261Z,100110.31
2022-07-31T15:40:03.069Z,100080.88
2022-07-31T15:42:38.341Z,100111.16
2022-07-31T15:45:07.547Z,100109.56
2022-07-31T15:47:34.998Z,100100.63
2022-07-31T15:50:02.025Z,100066.84
2022-07-31T15:52:30.514Z,100114.69
2022-07-31T15:54:57.621Z,100097.59
2022-07-31T15:57:25.005Z,100123.75
2022-07-31T15:59:56.405Z,100065.50
2022-07-31T16:02:24.848Z,100119.56
2022-07-31T16:04:54.809Z,100137.91
2022-07-31T16:08:29.096Z,100131.91
2022-07-31T16:10:17.700Z,100148.63
2022-07-31T16:12:48.927Z,100056.56
2022-07-31T16:15:16.999Z,100149.59
2022-07-31T16:17:44.979Z,100095.19
2022-07-31T16:20:25.716Z,100149.59
2022-07-31T16:22:57.165Z,100157.66
2022-07-31T16:25:25.983Z,100139.56
2022-07-31T16:27:53.185Z,100088.50
2022-07-31T16:30:20.453Z,100112.53
2022-07-31T16:32:47.545Z,100132.41
2022-07-31T16:35:14.664Z,100169.84
2022-07-31T16:37:51.016Z,100136.91
2022-07-31T16:40:28.073Z,100142.41
2022-07-31T16:43:48.090Z,100179.09
2022-07-31T16:45:51.618Z,100173.19
2022-07-31T16:48:18.707Z,100097.09
2022-07-31T16:50:46.468Z,100158.78
2022-07-31T16:54:11.219Z,100182.50
2022-07-31T16:56:07.098Z,100129.53
2022-07-31T16:58:34.853Z,100170.59
2022-07-31T17:01:04.106Z,100179.41
2022-07-31T17:04:01.526Z,100130.84
2022-07-31T17:06:18.534Z,100186.00
2022-07-31T17:09:17.405Z,100191.84
2022-07-31T17:11:51.005Z,100188.44
2022-07-31T17:14:19.670Z,100176.38
2022-07-31T17:16:49.060Z,100176.63
2022-07-31T17:19:42.726Z,100199.38
2022-07-31T17:22:11.820Z,100188.25
2022-07-31T17:24:50.667Z,100125.66
2022-07-31T17:27:19.071Z,100142.28
2022-07-31T17:29:46.124Z,100164.00
2022-07-31T17:32:13.451Z,100203.16
2022-07-31T17:34:40.818Z,100047.88
2022-07-31T17:37:08.562Z,100177.25
2022-07-31T17:39:36.188Z,100203.56
2022-07-31T17:42:03.348Z,100192.50
2022-07-31T17:44:30.386Z,100181.34
2022-07-31T17:47:06.981Z,100186.72
2022-07-31T17:49:34.977Z,100220.78
2022-07-31T17:52:02.021Z,100173.81
2022-07-31T17:54:30.833Z,100200.97
2022-07-31T17:56:58.588Z,100210.47
2022-07-31T17:59:26.250Z,100140.28
2022-07-31T18:01:59.618Z,100201.13
2022-07-31T18:04:27.795Z,100226.38
2022-07-31T18:06:55.072Z,100228.25
2022-07-31T18:09:23.707Z,100155.34
2022-07-31T18:11:52.340Z,100124.03
2022-07-31T18:14:20.415Z,100238.84
2022-07-31T18:16:48.140Z,100151.94
2022-07-31T18:19:16.108Z,100226.75
2022-07-31T18:21:43.191Z,100202.38
2022-07-31T18:24:10.496Z,100171.19
2022-07-31T18:26:37.591Z,100138.38
2022-07-31T18:29:05.275Z,100217.53
2022-07-31T18:31:35.306Z,100220.22
2022-07-31T18:34:07.102Z,100211.75
2022-07-31T18:36:34.833Z,100224.59
2022-07-31T18:39:02.178Z,100186.50
2022-07-31T18:41:29.954Z,100213.56
2022-07-31T18:43:58.003Z,100153.78
2022-07-31T18:46:25.344Z,100223.28
2022-07-31T18:48:55.726Z,100080.97
2022-07-31T18:51:23.500Z,100204.34
2022-07-31T18:53:51.549Z,100228.03
2022-07-31T18:56:22.818Z,100185.56
2022-07-31T18:58:50.026Z,100176.09
2022-07-31T19:01:17.168Z,100148.41
2022-07-31T19:03:44.222Z,100174.47
2022-07-31T19:06:11.683Z,100173.66
2022-07-31T19:08:38.724Z,100226.72
2022-07-31T19:11:05.940Z,100165.91
2022-07-31T19:13:33.365Z,100207.66
2022-07-31T19:16:00.634Z,100206.88
2022-07-31T19:18:28.552Z,100236.66
2022-07-31T19:21:23.495Z,100228.03
2022-07-31T19:23:46.471Z,100204.53
2022-07-31T19:26:13.580Z,100247.44
2022-07-31T19:28:43.161Z,100113.66
2022-07-31T19:31:11.084Z,100229.97
2022-07-31T19:33:38.173Z,100112.81
2022-07-31T19:36:05.786Z,100151.13
2022-07-31T19:38:34.145Z,100212.88
2022-07-31T19:41:01.265Z,100219.13
2022-07-31T19:43:28.795Z,100212.16
2022-07-31T19:46:02.691Z,100226.16
2022-07-31T19:48:41.683Z,100206.16
2022-07-31T19:51:10.124Z,100233.19
2022-07-31T19:53:37.604Z,100231.44
2022-07-31T19:56:08.246Z,100227.06
2022-07-31T19:58:37.006Z,100198.56
2022-07-31T20:01:05.451Z,100209.88
2022-07-31T20:03:32.900Z,100202.06
2022-07-31T20:06:00.146Z,100230.78
2022-07-31T20:08:27.103Z,100236.06
2022-07-31T20:11:02.026Z,100237.91
2022-07-31T20:13:30.194Z,100239.69
2022-07-31T20:15:58.556Z,100199.69
2022-07-31T20:18:29.264Z,100168.25
2022-07-31T20:20:57.967Z,100237.13
2022-07-31T20:23:25.951Z,100248.50
2022-07-31T20:25:53.117Z,100235.31
2022-07-31T20:28:20.067Z,100146.69
2022-07-31T20:30:47.326Z,100220.53
2022-07-31T20:33:14.391Z,100165.75
2022-07-31T20:35:48.888Z,100207.50
2022-07-31T20:38:18.700Z,100207.59
2022-07-31T20:40:54.121Z,100224.09
2022-07-31T20:43:23.747Z,100245.97
2022-07-31T20:45:51.740Z,100219.78
2022-07-31T20:48:19.093Z,100252.88
2022-07-31T20:50:48.127Z,100262.59
2022-07-31T20:53:16.554Z,100231.25
2022-07-31T20:55:50.582Z,100255.59
2022-07-31T20:58:19.378Z,100276.75
2022-07-31T21:00:47.710Z,100256.47
2022-07-31T21:03:16.501Z,100267.06
2022-07-31T21:05:43.853Z,100262.66
2022-07-31T21:08:11.321Z,100164.31
2022-07-31T21:10:38.946Z,100269.69
2022-07-31T21:13:05.967Z,100237.53
2022-07-31T21:15:42.689Z,100173.03
2022-07-31T21:18:16.726Z,100252.31
2022-07-31T21:20:52.247Z,100270.63
2022-07-31T21:23:21.448Z,100260.72
2022-07-31T21:25:48.716Z,100238.53
2022-07-31T21:28:16.265Z,100272.47
2022-07-31T21:30:43.418Z,100259.41
2022-07-31T21:33:10.811Z,100173.28
2022-07-31T21:35:40.044Z,100223.81
2022-07-31T21:38:12.725Z,100255.13
2022-07-31T21:40:40.537Z,100233.41
2022-07-31T21:43:08.746Z,100263.06
2022-07-31T21:45:50.550Z,100096.94
2022-07-31T21:48:25.244Z,100265.72
2022-07-31T21:50:53.568Z,100267.53
2022-07-31T21:53:20.734Z,100203.97
2022-07-31T21:55:47.682Z,100230.94
2022-07-31T21:58:14.824Z,100235.38
2022-07-31T22:00:42.216Z,100256.22
2022-07-31T22:03:09.241Z,100262.34
2022-07-31T22:05:54.721Z,100265.03
2022-07-31T22:08:21.777Z,100252.88
2022-07-31T22:10:51.323Z,100241.63
2022-07-31T22:13:19.609Z,100233.84
2022-07-31T22:15:55.559Z,100275.75
2022-07-31T22:18:32.734Z,100254.00
2022-07-31T22:21:01.468Z,100244.50
2022-07-31T22:23:29.092Z,100114.88
2022-07-31T22:25:56.606Z,100242.84
2022-07-31T22:28:25.167Z,100270.75
2022-07-31T22:30:53.301Z,100176.75
2022-07-31T22:33:20.953Z,100231.69
2022-07-31T22:35:58.303Z,100277.00
2022-07-31T22:38:28.589Z,100248.31
2022-07-31T22:40:55.678Z,100255.22
2022-07-31T22:44:13.983Z,100264.88
2022-07-31T22:46:12.370Z,100238.91
2022-07-31T22:48:40.998Z,100222.41
2022-07-31T22:51:10.737Z,100245.03
2022-07-31T22:53:41.475Z,100262.50
2022-07-31T22:56:08.496Z,100283.34
2022-07-31T22:58:35.485Z,100236.28
2022-07-31T23:01:02.457Z,100252.94
2022-07-31T23:03:29.445Z,100268.59
2022-07-31T23:06:27.984Z,100276.50
2022-07-31T23:08:43.954Z,100288.63
2022-07-31T23:11:10.899Z,100296.56
2022-07-31T23:13:39.942Z,100275.63
2022-07-31T23:16:07.027Z,100191.13
2022-07-31T23:18:34.107Z,100293.97
2022-07-31T23:21:01.080Z,100279.19
2022-07-31T23:23:28.025Z,100207.72
2022-07-31T23:25:54.980Z,100185.16
2022-07-31T23:28:21.919Z,100191.28
2022-07-31T23:30:48.861Z,100288.81
2022-07-31T23:33:17.000Z,100261.03
2022-07-31T23:35:44.395Z,100293.34
2022-07-31T23:38:12.248Z,100298.59
2022-07-31T23:40:39.265Z,100297.75
2022-07-31T23:43:06.264Z,100293.44
2022-07-31T23:45:33.191Z,100253.31
2022-07-31T23:48:00.154Z,100302.16
2022-07-31T23:50:27.938Z,100287.38
2022-07-31T23:52:54.889Z,100263.78
2022-07-31T23:55:22.318Z,100283.88
2022-07-31T23:57:51.154Z,100285.59
